SBPB/PHB METAR and TAF weather

Enter ICAO airport designator
Station Type Date Time Source
SBPB METAR 2022/06/29 21:45 UTC NOAA

SBPB 292145Z 06006KT 9999 FEW020 BKN100 29/26 Q////


Station Type Date Time Source
SBPB Decoded METAR 2022/06/29 21:45 UTC NOAA

Parnaiba Aeroporto , Brazil (SBPB) 02-55S 041-45W
Jun 29, 2022 - 05:45 PM EDT / 2022.06.29 2145 UTC
Wind: from the ENE (060 degrees) at 7 MPH (6 KT):0
Visibility: greater than 7 mile(s):0
Sky conditions: mostly cloudy
Temperature: 84 F (29 C)
Dew Point: 78 F (26 C)
Relative Humidity: 83%
ob: SBPB 292145Z 06006KT 9999 FEW020 BKN100 29/26 Q////
cycle: 22

Station Type Date Time Source
SBPB TAF 2022/06/30 06:03 UTC NOAA

TAF SBPB 300100Z 3006/3018 09010KT 9999 FEW020 TN26/3009Z TX34/3017Z
RMK PGU

Example: see airport list